sensor_id;sensor_type;location;lat;lon;timestamp;P1;durP1;ratioP1;P2;durP2;ratioP2
14939;SDS011;11825;51.898;8.202;2023-02-28T00:10:24;5.67;;;4.13;;
14939;SDS011;11825;51.898;8.202;2023-02-28T00:16:30;5.50;;;4.43;;
14939;SDS011;11825;51.898;8.202;2023-02-28T00:21:47;5.93;;;3.77;;
14939;SDS011;11825;51.898;8.202;2023-02-28T00:27:02;6.07;;;4.00;;
14939;SDS011;11825;51.898;8.202;2023-02-28T00:32:26;4.03;;;3.53;;
14939;SDS011;11825;51.898;8.202;2023-02-28T00:37:55;8.17;;;4.67;;
14939;SDS011;11825;51.898;8.202;2023-02-28T00:48:37;5.90;;;3.60;;
14939;SDS011;11825;51.898;8.202;2023-02-28T00:53:48;5.00;;;3.97;;
14939;SDS011;11825;51.898;8.202;2023-02-28T00:59:16;4.27;;;3.77;;
14939;SDS011;11825;51.898;8.202;2023-02-28T01:04:23;4.20;;;3.40;;
14939;SDS011;11825;51.898;8.202;2023-02-28T01:09:47;5.07;;;4.33;;
14939;SDS011;11825;51.898;8.202;2023-02-28T01:15:05;10.30;;;4.10;;
14939;SDS011;11825;51.898;8.202;2023-02-28T01:21:16;8.33;;;5.03;;
14939;SDS011;11825;51.898;8.202;2023-02-28T01:26:44;8.83;;;5.37;;
14939;SDS011;11825;51.898;8.202;2023-02-28T01:31:50;7.30;;;5.27;;
14939;SDS011;11825;51.898;8.202;2023-02-28T01:37:00;7.60;;;5.00;;
14939;SDS011;11825;51.898;8.202;2023-02-28T01:42:10;7.57;;;4.90;;
14939;SDS011;11825;51.898;8.202;2023-02-28T01:53:47;6.37;;;4.17;;
14939;SDS011;11825;51.898;8.202;2023-02-28T01:59:12;6.50;;;4.80;;
14939;SDS011;11825;51.898;8.202;2023-02-28T02:05:28;5.00;;;4.17;;
14939;SDS011;11825;51.898;8.202;2023-02-28T02:10:44;5.07;;;4.53;;
14939;SDS011;11825;51.898;8.202;2023-02-28T02:39:36;6.10;;;4.30;;
14939;SDS011;11825;51.898;8.202;2023-02-28T02:51:40;5.73;;;4.67;;
14939;SDS011;11825;51.898;8.202;2023-02-28T02:57:08;7.40;;;4.63;;
14939;SDS011;11825;51.898;8.202;2023-02-28T03:02:54;5.60;;;3.87;;
14939;SDS011;11825;51.898;8.202;2023-02-28T03:07:57;6.03;;;4.93;;
14939;SDS011;11825;51.898;8.202;2023-02-28T03:30:41;6.90;;;4.47;;
14939;SDS011;11825;51.898;8.202;2023-02-28T03:36:10;5.23;;;3.67;;
14939;SDS011;11825;51.898;8.202;2023-02-28T03:41:51;6.23;;;4.30;;
14939;SDS011;11825;51.898;8.202;2023-02-28T03:47:29;5.67;;;4.63;;
14939;SDS011;11825;51.898;8.202;2023-02-28T04:03:43;6.33;;;4.87;;
14939;SDS011;11825;51.898;8.202;2023-02-28T04:08:45;5.80;;;4.33;;
14939;SDS011;11825;51.898;8.202;2023-02-28T04:14:00;9.60;;;5.07;;
14939;SDS011;11825;51.898;8.202;2023-02-28T04:19:04;6.57;;;4.70;;
14939;SDS011;11825;51.898;8.202;2023-02-28T04:24:10;8.10;;;4.80;;
14939;SDS011;11825;51.898;8.202;2023-02-28T04:29:31;4.77;;;3.90;;
14939;SDS011;11825;51.898;8.202;2023-02-28T04:34:45;5.33;;;3.73;;
14939;SDS011;11825;51.898;8.202;2023-02-28T04:39:47;6.17;;;4.63;;
14939;SDS011;11825;51.898;8.202;2023-02-28T04:45:10;5.00;;;4.50;;
14939;SDS011;11825;51.898;8.202;2023-02-28T04:50:16;7.63;;;4.27;;
14939;SDS011;11825;51.898;8.202;2023-02-28T04:55:21;5.07;;;3.80;;
14939;SDS011;11825;51.898;8.202;2023-02-28T05:00:28;4.93;;;3.97;;
14939;SDS011;11825;51.898;8.202;2023-02-28T05:05:32;7.30;;;3.87;;
14939;SDS011;11825;51.898;8.202;2023-02-28T05:10:35;6.30;;;4.60;;
14939;SDS011;11825;51.898;8.202;2023-02-28T05:15:37;7.10;;;4.37;;
14939;SDS011;11825;51.898;8.202;2023-02-28T05:21:04;4.93;;;3.93;;
14939;SDS011;11825;51.898;8.202;2023-02-28T05:26:13;5.53;;;4.50;;
14939;SDS011;11825;51.898;8.202;2023-02-28T05:31:16;7.17;;;4.47;;
14939;SDS011;11825;51.898;8.202;2023-02-28T05:36:37;5.20;;;4.47;;
14939;SDS011;11825;51.898;8.202;2023-02-28T05:41:43;9.17;;;5.53;;
14939;SDS011;11825;51.898;8.202;2023-02-28T05:46:45;5.47;;;4.73;;
14939;SDS011;11825;51.898;8.202;2023-02-28T05:51:57;5.73;;;4.53;;
14939;SDS011;11825;51.898;8.202;2023-02-28T05:57:06;6.57;;;4.97;;
14939;SDS011;11825;51.898;8.202;2023-02-28T06:02:19;6.17;;;5.30;;
14939;SDS011;11825;51.898;8.202;2023-02-28T06:07:33;7.53;;;5.07;;
14939;SDS011;11825;51.898;8.202;2023-02-28T06:12:53;6.30;;;5.70;;
14939;SDS011;11825;51.898;8.202;2023-02-28T06:18:00;8.03;;;5.40;;
14939;SDS011;11825;51.898;8.202;2023-02-28T06:23:02;6.47;;;5.70;;
14939;SDS011;11825;51.898;8.202;2023-02-28T06:28:04;9.93;;;5.53;;
14939;SDS011;11825;51.898;8.202;2023-02-28T06:33:09;9.00;;;5.30;;
14939;SDS011;11825;51.898;8.202;2023-02-28T06:38:17;7.37;;;6.50;;
14939;SDS011;11825;51.898;8.202;2023-02-28T06:43:19;10.90;;;6.40;;
14939;SDS011;11825;51.898;8.202;2023-02-28T06:48:23;8.20;;;6.63;;
14939;SDS011;11825;51.898;8.202;2023-02-28T06:53:25;7.83;;;5.83;;
14939;SDS011;11825;51.898;8.202;2023-02-28T06:58:48;8.73;;;6.90;;
14939;SDS011;11825;51.898;8.202;2023-02-28T07:03:51;6.90;;;5.87;;
14939;SDS011;11825;51.898;8.202;2023-02-28T07:08:54;9.13;;;6.63;;
14939;SDS011;11825;51.898;8.202;2023-02-28T07:13:58;5.43;;;4.43;;
14939;SDS011;11825;51.898;8.202;2023-02-28T07:19:01;5.97;;;4.97;;
14939;SDS011;11825;51.898;8.202;2023-02-28T07:24:03;6.60;;;5.00;;
14939;SDS011;11825;51.898;8.202;2023-02-28T07:29:05;14.47;;;9.43;;
14939;SDS011;11825;51.898;8.202;2023-02-28T07:34:08;9.87;;;7.43;;
14939;SDS011;11825;51.898;8.202;2023-02-28T07:39:10;9.37;;;6.83;;
14939;SDS011;11825;51.898;8.202;2023-02-28T07:44:16;6.80;;;5.27;;
14939;SDS011;11825;51.898;8.202;2023-02-28T07:49:18;7.53;;;5.63;;
14939;SDS011;11825;51.898;8.202;2023-02-28T07:54:31;7.87;;;6.10;;
14939;SDS011;11825;51.898;8.202;2023-02-28T07:59:35;8.83;;;6.50;;
14939;SDS011;11825;51.898;8.202;2023-02-28T08:04:38;7.10;;;6.40;;
14939;SDS011;11825;51.898;8.202;2023-02-28T08:09:40;8.03;;;7.17;;
14939;SDS011;11825;51.898;8.202;2023-02-28T08:14:42;7.63;;;5.10;;
14939;SDS011;11825;51.898;8.202;2023-02-28T08:19:47;6.90;;;4.20;;
14939;SDS011;11825;51.898;8.202;2023-02-28T08:24:49;7.37;;;4.43;;
14939;SDS011;11825;51.898;8.202;2023-02-28T08:29:51;6.23;;;4.97;;
14939;SDS011;11825;51.898;8.202;2023-02-28T08:34:54;5.00;;;3.40;;
14939;SDS011;11825;51.898;8.202;2023-02-28T08:39:58;3.53;;;3.23;;
14939;SDS011;11825;51.898;8.202;2023-02-28T08:45:05;6.33;;;4.37;;
14939;SDS011;11825;51.898;8.202;2023-02-28T08:50:08;3.53;;;2.97;;
14939;SDS011;11825;51.898;8.202;2023-02-28T08:55:16;3.47;;;2.43;;
14939;SDS011;11825;51.898;8.202;2023-02-28T09:00:18;3.87;;;3.47;;
14939;SDS011;11825;51.898;8.202;2023-02-28T09:05:23;3.00;;;2.70;;
14939;SDS011;11825;51.898;8.202;2023-02-28T09:10:35;4.40;;;2.80;;
14939;SDS011;11825;51.898;8.202;2023-02-28T09:15:39;3.40;;;2.60;;
14939;SDS011;11825;51.898;8.202;2023-02-28T09:20:50;3.13;;;2.83;;
14939;SDS011;11825;51.898;8.202;2023-02-28T09:25:55;3.63;;;2.77;;
14939;SDS011;11825;51.898;8.202;2023-02-28T09:31:00;3.10;;;2.53;;
14939;SDS011;11825;51.898;8.202;2023-02-28T09:36:10;2.23;;;2.03;;
14939;SDS011;11825;51.898;8.202;2023-02-28T09:42:21;5.13;;;2.70;;
14939;SDS011;11825;51.898;8.202;2023-02-28T09:47:53;2.60;;;2.40;;
14939;SDS011;11825;51.898;8.202;2023-02-28T09:53:33;2.97;;;2.20;;
14939;SDS011;11825;51.898;8.202;2023-02-28T09:59:23;3.53;;;1.90;;
14939;SDS011;11825;51.898;8.202;2023-02-28T10:04:53;1.70;;;1.60;;
14939;SDS011;11825;51.898;8.202;2023-02-28T10:10:42;2.50;;;1.50;;
14939;SDS011;11825;51.898;8.202;2023-02-28T10:27:31;4.43;;;2.20;;
14939;SDS011;11825;51.898;8.202;2023-02-28T10:33:02;2.27;;;2.07;;
14939;SDS011;11825;51.898;8.202;2023-02-28T10:38:41;1.93;;;1.73;;
14939;SDS011;11825;51.898;8.202;2023-02-28T10:55:45;2.77;;;2.43;;
14939;SDS011;11825;51.898;8.202;2023-02-28T11:01:45;2.27;;;2.00;;
14939;SDS011;11825;51.898;8.202;2023-02-28T11:07:21;2.43;;;2.23;;
14939;SDS011;11825;51.898;8.202;2023-02-28T11:13:04;4.03;;;2.10;;
14939;SDS011;11825;51.898;8.202;2023-02-28T11:24:29;3.20;;;2.10;;
14939;SDS011;11825;51.898;8.202;2023-02-28T11:53:37;4.63;;;3.20;;
14939;SDS011;11825;51.898;8.202;2023-02-28T11:59:07;3.80;;;2.30;;
14939;SDS011;11825;51.898;8.202;2023-02-28T12:28:14;4.10;;;2.00;;
14939;SDS011;11825;51.898;8.202;2023-02-28T12:34:03;2.40;;;1.93;;
14939;SDS011;11825;51.898;8.202;2023-02-28T12:39:46;3.93;;;2.47;;
14939;SDS011;11825;51.898;8.202;2023-02-28T12:45:24;7.60;;;3.17;;
14939;SDS011;11825;51.898;8.202;2023-02-28T12:50:45;4.90;;;2.87;;
14939;SDS011;11825;51.898;8.202;2023-02-28T12:56:03;9.20;;;3.40;;
14939;SDS011;11825;51.898;8.202;2023-02-28T13:01:32;3.57;;;2.33;;
14939;SDS011;11825;51.898;8.202;2023-02-28T13:12:46;3.00;;;2.70;;
14939;SDS011;11825;51.898;8.202;2023-02-28T13:18:04;3.03;;;2.63;;
14939;SDS011;11825;51.898;8.202;2023-02-28T13:34:13;4.17;;;2.60;;
14939;SDS011;11825;51.898;8.202;2023-02-28T13:45:19;5.97;;;3.40;;
14939;SDS011;11825;51.898;8.202;2023-02-28T13:50:38;3.60;;;2.77;;
14939;SDS011;11825;51.898;8.202;2023-02-28T13:55:45;2.40;;;2.20;;
14939;SDS011;11825;51.898;8.202;2023-02-28T14:07:18;5.33;;;2.27;;
14939;SDS011;11825;51.898;8.202;2023-02-28T14:18:13;3.00;;;2.80;;
14939;SDS011;11825;51.898;8.202;2023-02-28T14:40:02;3.60;;;2.40;;
14939;SDS011;11825;51.898;8.202;2023-02-28T14:45:17;4.77;;;3.07;;
14939;SDS011;11825;51.898;8.202;2023-02-28T14:50:27;3.30;;;2.80;;
14939;SDS011;11825;51.898;8.202;2023-02-28T14:55:49;3.63;;;2.93;;
14939;SDS011;11825;51.898;8.202;2023-02-28T15:00:55;3.10;;;2.63;;
14939;SDS011;11825;51.898;8.202;2023-02-28T15:06:19;3.93;;;3.23;;
14939;SDS011;11825;51.898;8.202;2023-02-28T15:11:30;4.23;;;3.03;;
14939;SDS011;11825;51.898;8.202;2023-02-28T15:16:41;3.87;;;2.97;;
14939;SDS011;11825;51.898;8.202;2023-02-28T15:22:04;4.37;;;3.23;;
14939;SDS011;11825;51.898;8.202;2023-02-28T15:27:19;2.90;;;2.60;;
14939;SDS011;11825;51.898;8.202;2023-02-28T15:32:37;4.77;;;3.87;;
14939;SDS011;11825;51.898;8.202;2023-02-28T15:49:39;2.93;;;2.60;;
14939;SDS011;11825;51.898;8.202;2023-02-28T15:54:55;3.30;;;2.53;;
14939;SDS011;11825;51.898;8.202;2023-02-28T16:00:16;5.27;;;3.00;;
14939;SDS011;11825;51.898;8.202;2023-02-28T16:05:32;4.00;;;3.17;;
14939;SDS011;11825;51.898;8.202;2023-02-28T16:10:40;4.03;;;3.33;;
14939;SDS011;11825;51.898;8.202;2023-02-28T16:15:59;6.43;;;3.27;;
14939;SDS011;11825;51.898;8.202;2023-02-28T16:21:06;5.30;;;3.00;;
14939;SDS011;11825;51.898;8.202;2023-02-28T16:26:35;5.73;;;3.27;;
